Time;durP1;ratioP1;P1;durP2;ratioP2;P2;SDS_P1;SDS_P2;PMS_P1;PMS_P2;Temp;Humidity;BMP_temperature;BMP_pressure;BME280_temperature;BME280_humidity;BME280_pressure;Samples;Min_cycle;Max_cycle;Signal;HPM_P1;HPM_P2
2023/07/16 00:01:28;;;;;;;;;;;;;;;16.31;100.00;100867.31;4987748;28;19945;-79
2023/07/16 00:03:53;;;;;;;;;;;;;;;16.30;100.00;100862.91;4974204;28;19932;-77
2023/07/16 00:06:18;;;;;;;;;;;;;;;16.22;100.00;100870.97;4965848;28;19951;-77
2023/07/16 00:08:43;;;;;;;;;;;;;;;16.19;100.00;100874.84;4988062;28;19952;-77
2023/07/16 00:11:08;;;;;;;;;;;;;;;16.14;100.00;100882.59;4994260;28;19926;-78
2023/07/16 00:13:34;;;;;;;;;;;;;;;16.06;100.00;100877.94;5007550;28;19926;-77
2023/07/16 00:15:59;;;;;;;;;;;;;;;16.07;100.00;100874.22;4956439;28;19926;-79
2023/07/16 00:18:24;;;;;;;;;;;;;;;16.02;100.00;100874.69;4994133;28;20253;-78
2023/07/16 00:20:49;;;;;;;;;;;;;;;15.89;100.00;100874.25;5010546;28;21082;-79
2023/07/16 00:23:15;;;;;;;;;;;;;;;15.80;100.00;100881.38;4996751;28;20515;-80
2023/07/16 00:25:40;;;;;;;;;;;;;;;15.87;100.00;100879.78;5006044;28;20383;-79
2023/07/16 00:28:05;;;;;;;;;;;;;;;15.83;100.00;100872.09;5006247;28;19925;-80
2023/07/16 00:30:30;;;;;;;;;;;;;;;15.79;100.00;100887.78;4990584;28;19921;-80
2023/07/16 00:32:55;;;;;;;;;;;;;;;15.83;100.00;100878.38;4960963;28;19926;-79
2023/07/16 00:35:21;;;;;;;;;;;;;;;15.77;100.00;100878.13;4981356;28;19964;-80
2023/07/16 00:37:46;;;;;;;;;;;;;;;15.70;100.00;100875.19;4961593;28;20039;-80
2023/07/16 00:40:11;;;;;;;;;;;;;;;15.69;100.00;100892.44;4961939;28;19925;-80
2023/07/16 00:42:37;;;;;;;;;;;;;;;15.65;100.00;100886.44;4977536;28;19921;-80
2023/07/16 00:45:02;;;;;;;;;;;;;;;15.57;100.00;100892.63;4991568;28;19995;-80
2023/07/16 00:47:28;;;;;;;;;;;;;;;15.52;100.00;100892.22;5006624;28;19929;-79
2023/07/16 00:49:53;;;;;;;;;;;;;;;15.48;100.00;100896.25;5006133;28;19926;-77
2023/07/16 00:52:18;;;;;;;;;;;;;;;15.42;100.00;100894.16;4977679;28;19926;-77
2023/07/16 00:54:44;;;;;;;;;;;;;;;15.37;100.00;100897.28;5002512;28;19980;-79
2023/07/16 00:57:09;;;;;;;;;;;;;;;15.37;100.00;100891.88;4975917;28;19929;-80
2023/07/16 00:59:34;;;;;;;;;;;;;;;15.37;100.00;100899.16;4978258;28;19933;-78
2023/07/16 01:01:59;;;;;;;;;;;;;;;15.33;100.00;100890.50;4963008;28;19971;-78
2023/07/16 01:04:24;;;;;;;;;;;;;;;15.29;100.00;100889.91;4952524;28;19933;-79
2023/07/16 01:06:53;;;;;;;;;;;;;;;15.27;100.00;100894.63;4978844;28;20310;-79
2023/07/16 01:09:19;;;;;;;;;;;;;;;15.24;100.00;100891.38;5005571;28;20201;-79
2023/07/16 01:11:45;;;;;;;;;;;;;;;15.21;100.00;100886.25;4998116;28;19921;-80
2023/07/16 01:14:10;;;;;;;;;;;;;;;15.14;100.00;100891.41;4978845;28;19932;-80
2023/07/16 01:16:35;;;;;;;;;;;;;;;15.10;100.00;100884.59;4960770;28;19952;-80
2023/07/16 01:19:00;;;;;;;;;;;;;;;15.06;100.00;100889.47;4978344;28;19929;-80
2023/07/16 01:21:31;;;;;;;;;;;;;;;15.02;100.00;100893.47;4976342;28;20383;-79
2023/07/16 01:23:57;;;;;;;;;;;;;;;15.03;100.00;100897.88;4978980;28;20333;-80
2023/07/16 01:26:40;;;;;;;;;;;;;;;14.97;100.00;100893.88;4993318;28;20455;-80
2023/07/16 01:29:21;;;;;;;;;;;;;;;14.85;100.00;100895.06;4987830;28;19925;-80
2023/07/16 01:31:47;;;;;;;;;;;;;;;14.75;100.00;100895.09;4972700;28;19932;-79
2023/07/16 01:34:12;;;;;;;;;;;;;;;14.63;100.00;100888.09;4957076;28;19926;-79
2023/07/16 01:36:37;;;;;;;;;;;;;;;14.55;100.00;100884.28;4960863;28;20665;-79
2023/07/16 01:39:02;;;;;;;;;;;;;;;14.55;100.00;100886.13;4980132;28;20350;-79
2023/07/16 01:41:28;;;;;;;;;;;;;;;14.50;100.00;100880.31;4987356;28;20345;-79
2023/07/16 01:43:53;;;;;;;;;;;;;;;14.58;100.00;100890.38;5010983;28;20391;-81
2023/07/16 01:46:18;;;;;;;;;;;;;;;14.52;100.00;100884.59;4962033;28;20440;-79
2023/07/16 01:48:43;;;;;;;;;;;;;;;14.59;100.00;100892.09;4962157;28;20023;-80
2023/07/16 01:51:09;;;;;;;;;;;;;;;14.58;100.00;100893.94;4960933;28;19925;-79
2023/07/16 01:53:34;;;;;;;;;;;;;;;14.55;100.00;100892.41;4985250;28;20287;-79
2023/07/16 01:56:00;;;;;;;;;;;;;;;14.54;100.00;100898.81;4984657;28;20334;-78
2023/07/16 01:58:25;;;;;;;;;;;;;;;14.48;100.00;100891.25;5002842;28;19929;-79
2023/07/16 02:00:51;;;;;;;;;;;;;;;14.51;100.00;100887.41;4960088;28;19976;-79
2023/07/16 02:03:16;;;;;;;;;;;;;;;14.46;100.00;100890.56;4986772;28;19967;-78
2023/07/16 02:05:41;;;;;;;;;;;;;;;14.40;100.00;100897.38;4990909;28;20020;-80
2023/07/16 02:08:06;;;;;;;;;;;;;;;14.48;100.00;100893.97;4965235;28;19926;-79
2023/07/16 02:10:31;;;;;;;;;;;;;;;14.54;100.00;100900.63;4964543;28;20323;-79
2023/07/16 02:12:57;;;;;;;;;;;;;;;14.59;100.00;100890.25;4965407;28;19925;-79
2023/07/16 02:15:22;;;;;;;;;;;;;;;14.67;100.00;100890.38;4978986;28;20549;-81
2023/07/16 02:17:47;;;;;;;;;;;;;;;14.67;100.00;100890.38;5005009;28;19925;-79
2023/07/16 02:20:13;;;;;;;;;;;;;;;14.57;100.00;100883.31;4993632;28;19963;-79
2023/07/16 02:22:38;;;;;;;;;;;;;;;14.61;100.00;100901.78;4980971;28;19933;-79
2023/07/16 02:25:04;;;;;;;;;;;;;;;14.64;100.00;100911.44;4981425;28;20068;-79
2023/07/16 02:27:29;;;;;;;;;;;;;;;14.68;100.00;100894.84;4963129;28;19928;-79
2023/07/16 02:29:54;;;;;;;;;;;;;;;14.67;100.00;100901.19;4964387;28;20496;-79
2023/07/16 02:32:20;;;;;;;;;;;;;;;14.61;100.00;100899.06;4983336;28;20439;-78
2023/07/16 02:34:45;;;;;;;;;;;;;;;14.64;100.00;100900.63;4963022;28;19960;-79
2023/07/16 02:37:10;;;;;;;;;;;;;;;14.59;100.00;100906.47;4984763;28;19925;-79
2023/07/16 02:39:35;;;;;;;;;;;;;;;14.55;100.00;100915.84;5011505;28;19925;-80
2023/07/16 02:42:00;;;;;;;;;;;;;;;14.57;100.00;100908.44;5010131;28;19976;-79
2023/07/16 02:44:26;;;;;;;;;;;;;;;14.64;100.00;100909.59;4981442;28;20084;-78
2023/07/16 02:46:51;;;;;;;;;;;;;;;14.62;100.00;100911.59;4993348;28;19926;-80
2023/07/16 02:49:16;;;;;;;;;;;;;;;14.54;100.00;100919.53;4976069;28;19925;-80
2023/07/16 02:51:41;;;;;;;;;;;;;;;14.65;100.00;100916.69;4964331;28;20283;-78
2023/07/16 02:54:06;;;;;;;;;;;;;;;14.62;100.00;100908.88;4985265;28;19976;-78
2023/07/16 02:56:32;;;;;;;;;;;;;;;14.61;100.00;100915.28;5009362;28;19987;-78
2023/07/16 02:58:57;;;;;;;;;;;;;;;14.68;100.00;100916.44;4995246;28;20084;-79
2023/07/16 03:01:22;;;;;;;;;;;;;;;14.83;100.00;100919.53;4981795;28;20379;-79
2023/07/16 03:03:47;;;;;;;;;;;;;;;14.77;100.00;100930.94;4988501;28;20390;-82
2023/07/16 03:06:13;;;;;;;;;;;;;;;14.81;100.00;100937.75;4970855;28;20359;-78
2023/07/16 03:08:38;;;;;;;;;;;;;;;14.81;100.00;100931.50;4968506;28;19960;-79
2023/07/16 03:11:03;;;;;;;;;;;;;;;14.76;100.00;100934.63;4988205;28;20366;-80
2023/07/16 03:13:28;;;;;;;;;;;;;;;14.77;100.00;100930.94;4964467;28;20008;-81
2023/07/16 03:15:54;;;;;;;;;;;;;;;14.72;100.00;100935.03;4980745;28;19968;-78
2023/07/16 03:18:19;;;;;;;;;;;;;;;14.77;100.00;100933.63;4991714;28;20035;-79
2023/07/16 03:20:45;;;;;;;;;;;;;;;14.73;100.00;100943.03;4994438;28;19925;-77
2023/07/16 03:23:10;;;;;;;;;;;;;;;14.70;100.00;100941.44;4963368;28;19980;-85
2023/07/16 03:25:35;;;;;;;;;;;;;;;14.72;100.00;100941.31;4994549;28;20107;-81
2023/07/16 03:28:00;;;;;;;;;;;;;;;14.63;100.00;100940.31;5007386;28;19925;-76
2023/07/16 03:30:25;;;;;;;;;;;;;;;14.64;100.00;100941.16;5003833;28;20064;-76
2023/07/16 03:32:51;;;;;;;;;;;;;;;14.61;100.00;100946.84;4994427;28;20153;-81
2023/07/16 03:35:16;;;;;;;;;;;;;;;14.62;100.00;100951.25;4961974;28;19960;-81
2023/07/16 03:37:41;;;;;;;;;;;;;;;14.51;100.00;100945.00;4978623;28;20407;-79
2023/07/16 03:40:13;;;;;;;;;;;;;;;14.49;100.00;100947.00;4962465;28;19925;-80
2023/07/16 03:42:38;;;;;;;;;;;;;;;14.55;100.00;100949.13;5008530;28;19987;-79
2023/07/16 03:45:04;;;;;;;;;;;;;;;14.53;100.00;100956.53;4981308;28;19925;-82
2023/07/16 03:47:29;;;;;;;;;;;;;;;14.59;100.00;100952.41;5011323;28;19976;-81
2023/07/16 03:49:54;;;;;;;;;;;;;;;14.54;100.00;100966.34;5010246;28;19932;-78
2023/07/16 03:52:20;;;;;;;;;;;;;;;14.59;100.00;100968.59;4992087;28;19932;-78
2023/07/16 03:54:45;;;;;;;;;;;;;;;14.57;100.00;100967.06;5007136;28;19925;-82
2023/07/16 03:57:10;;;;;;;;;;;;;;;14.69;100.00;100977.59;4992767;28;19929;-78
2023/07/16 03:59:35;;;;;;;;;;;;;;;14.69;100.00;100980.31;5014410;28;19932;-79
2023/07/16 04:02:00;;;;;;;;;;;;;;;14.69;100.00;100983.00;4979526;28;19925;-81
2023/07/16 04:04:26;;;;;;;;;;;;;;;14.60;100.00;100966.75;4993490;28;20026;-76
2023/07/16 04:06:51;;;;;;;;;;;;;;;14.68;100.00;100981.31;5013164;28;19925;-79
2023/07/16 04:09:16;;;;;;;;;;;;;;;14.64;100.00;100982.56;4992001;28;20485;-79
2023/07/16 04:11:41;;;;;;;;;;;;;;;14.58;100.00;100980.41;5011787;28;19957;-82
2023/07/16 04:14:07;;;;;;;;;;;;;;;14.62;100.00;100983.66;4960689;28;19987;-80
2023/07/16 04:16:32;;;;;;;;;;;;;;;14.64;100.00;100981.69;4962525;28;20670;-76
2023/07/16 04:18:57;;;;;;;;;;;;;;;14.59;100.00;100981.25;5011287;28;19957;-77
2023/07/16 04:21:22;;;;;;;;;;;;;;;14.47;100.00;100983.25;5005685;28;20040;-76
2023/07/16 04:23:47;;;;;;;;;;;;;;;14.38;100.00;100993.03;4986800;28;19925;-83
2023/07/16 04:26:13;;;;;;;;;;;;;;;14.37;100.00;100994.03;4979435;28;20273;-78
2023/07/16 04:28:39;;;;;;;;;;;;;;;14.32;100.00;101001.69;4977627;28;19925;-80
2023/07/16 04:31:04;;;;;;;;;;;;;;;14.32;100.00;101002.56;4993216;28;19929;-79
2023/07/16 04:33:29;;;;;;;;;;;;;;;14.29;100.00;101005.56;4962703;28;19932;-82
2023/07/16 04:35:54;;;;;;;;;;;;;;;14.24;100.00;101005.97;4979441;28;20261;-75
2023/07/16 04:38:20;;;;;;;;;;;;;;;14.23;100.00;101008.81;5008951;28;20286;-77
2023/07/16 04:40:45;;;;;;;;;;;;;;;14.28;100.00;101003.84;4989344;28;20020;-79
2023/07/16 04:43:10;;;;;;;;;;;;;;;14.36;100.00;100990.50;4998941;28;20056;-74
2023/07/16 04:45:35;;;;;;;;;;;;;;;14.42;100.00;101002.59;4976874;28;20025;-80
2023/07/16 04:48:01;;;;;;;;;;;;;;;14.43;100.00;101017.78;4977998;28;20019;-75
2023/07/16 04:50:26;;;;;;;;;;;;;;;14.53;100.00;101021.38;5005390;28;19971;-75
2023/07/16 04:52:51;;;;;;;;;;;;;;;14.47;100.00;101019.22;4959469;28;19952;-82
2023/07/16 04:55:16;;;;;;;;;;;;;;;14.47;100.00;101026.47;4963114;28;20013;-78
2023/07/16 04:57:41;;;;;;;;;;;;;;;14.39;100.00;101025.34;4979353;28;20036;-75
2023/07/16 05:00:07;;;;;;;;;;;;;;;14.44;100.00;101027.59;4963412;28;20398;-82
2023/07/16 05:02:33;;;;;;;;;;;;;;;14.44;100.00;101033.00;5008747;28;20394;-80
2023/07/16 05:04:58;;;;;;;;;;;;;;;14.55;100.00;101034.72;5002293;28;19975;-81
2023/07/16 05:07:23;;;;;;;;;;;;;;;14.62;100.00;101033.19;4999801;28;19968;-77
2023/07/16 05:09:48;;;;;;;;;;;;;;;14.60;100.00;101035.16;4978959;28;20016;-78
2023/07/16 05:12:14;;;;;;;;;;;;;;;14.70;100.00;101043.31;4999954;28;19931;-79
2023/07/16 05:14:43;;;;;;;;;;;;;;;14.68;100.00;101040.75;4975459;28;19932;-78
2023/07/16 05:17:08;;;;;;;;;;;;;;;14.76;100.00;101045.44;5002230;28;19933;-77
2023/07/16 05:19:33;;;;;;;;;;;;;;;14.78;100.00;101040.75;4977975;28;19960;-79
2023/07/16 05:21:58;;;;;;;;;;;;;;;14.75;100.00;101037.47;4993027;28;19977;-82
2023/07/16 05:24:23;;;;;;;;;;;;;;;14.80;100.00;101038.75;5010301;28;20032;-78
2023/07/16 05:26:50;;;;;;;;;;;;;;;14.81;100.00;101040.47;5006045;28;19932;-75
2023/07/16 05:29:15;;;;;;;;;;;;;;;14.90;100.00;101033.34;4978539;28;19963;-76
2023/07/16 05:31:42;;;;;;;;;;;;;;;14.91;100.00;101045.00;5008817;28;19925;-79
2023/07/16 05:34:07;;;;;;;;;;;;;;;14.97;100.00;101041.72;4988508;28;19925;-81
2023/07/16 05:36:32;;;;;;;;;;;;;;;15.06;100.00;101040.00;4963634;28;19921;-82
2023/07/16 05:38:57;;;;;;;;;;;;;;;15.13;100.00;101054.66;4987565;28;19927;-77
2023/07/16 05:41:23;;;;;;;;;;;;;;;15.19;100.00;101050.53;4979441;28;19933;-76
2023/07/16 05:43:48;;;;;;;;;;;;;;;15.25;100.00;101050.78;4977788;28;19933;-79
2023/07/16 05:46:14;;;;;;;;;;;;;;;15.28;100.00;101055.91;4979133;28;19925;-78
2023/07/16 05:48:39;;;;;;;;;;;;;;;15.34;100.00;101059.91;4988241;28;20024;-81
2023/07/16 05:51:04;;;;;;;;;;;;;;;15.41;100.00;101047.47;4976456;28;19925;-75
2023/07/16 05:53:29;;;;;;;;;;;;;;;15.53;100.00;101056.28;5009007;28;20368;-83
2023/07/16 05:55:54;;;;;;;;;;;;;;;15.60;100.00;101053.88;4981610;28;19925;-78
2023/07/16 05:58:20;;;;;;;;;;;;;;;15.65;100.00;101069.66;4986860;28;19968;-77
2023/07/16 06:00:45;;;;;;;;;;;;;;;15.63;100.00;101058.13;5007840;28;20013;-78
2023/07/16 06:03:10;;;;;;;;;;;;;;;15.69;100.00;101065.66;5006627;28;19983;-73
2023/07/16 06:05:36;;;;;;;;;;;;;;;15.77;100.00;101064.91;4989274;28;20052;-77
2023/07/16 06:08:02;;;;;;;;;;;;;;;15.80;100.00;101064.63;5010345;28;19922;-79
2023/07/16 06:10:27;;;;;;;;;;;;;;;15.88;100.00;101075.59;5006128;28;20296;-77
2023/07/16 06:12:52;;;;;;;;;;;;;;;15.98;100.00;101064.72;4979774;28;19928;-74
2023/07/16 06:15:17;;;;;;;;;;;;;;;16.01;100.00;101067.13;5006723;28;20327;-75
2023/07/16 06:17:43;;;;;;;;;;;;;;;16.02;100.00;101083.22;4994171;28;20324;-75
2023/07/16 06:20:08;;;;;;;;;;;;;;;16.13;100.00;101087.59;4990916;28;20275;-74
2023/07/16 06:22:33;;;;;;;;;;;;;;;16.10;100.00;101093.28;4995719;28;20546;-77
2023/07/16 06:24:59;;;;;;;;;;;;;;;16.14;100.00;101086.59;4991684;28;19926;-78
2023/07/16 06:27:24;;;;;;;;;;;;;;;16.25;100.00;101085.53;4995688;28;19925;-74
2023/07/16 06:29:49;;;;;;;;;;;;;;;16.26;100.00;101086.41;4974502;28;20231;-75
2023/07/16 06:32:15;;;;;;;;;;;;;;;16.37;100.00;101086.16;4995555;28;19926;-75
2023/07/16 06:34:40;;;;;;;;;;;;;;;16.37;100.00;101091.59;4992173;28;19929;-79
2023/07/16 06:37:05;;;;;;;;;;;;;;;16.45;100.00;101094.41;5010306;28;19925;-79
2023/07/16 06:39:31;;;;;;;;;;;;;;;16.56;100.00;101089.75;5003672;28;19932;-74
2023/07/16 06:41:56;;;;;;;;;;;;;;;16.46;100.00;101087.09;4971205;28;20336;-74
2023/07/16 06:44:22;;;;;;;;;;;;;;;16.57;100.00;101095.03;4993698;28;19944;-80
2023/07/16 06:46:47;;;;;;;;;;;;;;;16.70;100.00;101101.94;4996654;28;19914;-76
2023/07/16 06:49:12;;;;;;;;;;;;;;;16.64;100.00;101097.97;4964073;28;20417;-76
2023/07/16 06:51:38;;;;;;;;;;;;;;;16.79;100.00;101107.31;4998364;28;20264;-76
2023/07/16 06:54:03;;;;;;;;;;;;;;;16.73;100.00;101109.75;4996808;28;20518;-77
2023/07/16 06:56:28;;;;;;;;;;;;;;;16.81;100.00;101100.88;4998409;28;20381;-72
2023/07/16 06:58:53;;;;;;;;;;;;;;;16.81;100.00;101109.84;4995109;28;19932;-75
2023/07/16 07:01:19;;;;;;;;;;;;;;;16.89;100.00;101109.06;5008122;28;19964;-75
2023/07/16 07:03:44;;;;;;;;;;;;;;;17.04;100.00;101112.13;5007660;28;19964;-73
2023/07/16 07:06:10;;;;;;;;;;;;;;;16.96;100.00;101120.19;5008435;28;20140;-74
2023/07/16 07:08:36;;;;;;;;;;;;;;;17.11;100.00;101107.78;4997819;28;19925;-75
2023/07/16 07:11:01;;;;;;;;;;;;;;;17.24;100.00;101110.09;4995350;28;20197;-79
2023/07/16 07:13:26;;;;;;;;;;;;;;;17.37;100.00;101109.69;4977189;28;19992;-80
2023/07/16 07:15:52;;;;;;;;;;;;;;;17.39;100.00;101111.22;4998635;28;19968;-75
2023/07/16 07:18:17;;;;;;;;;;;;;;;17.45;100.00;101108.91;4999696;28;19932;-77
2023/07/16 07:20:42;;;;;;;;;;;;;;;17.35;100.00;101111.72;4997425;28;20324;-78
2023/07/16 07:23:08;;;;;;;;;;;;;;;17.37;100.00;101120.56;4993345;28;19929;-74
2023/07/16 07:25:33;;;;;;;;;;;;;;;17.36;100.00;101122.41;5001311;28;21960;-81
2023/07/16 07:27:58;;;;;;;;;;;;;;;17.47;100.00;101136.75;4982948;28;19925;-77
2023/07/16 07:30:23;;;;;;;;;;;;;;;17.53;100.00;101122.53;4997004;28;19929;-80
2023/07/16 07:32:48;;;;;;;;;;;;;;;17.48;100.00;101138.44;4998942;28;19929;-76
2023/07/16 07:35:14;;;;;;;;;;;;;;;17.53;100.00;101138.84;4980062;28;19936;-76
2023/07/16 07:37:39;;;;;;;;;;;;;;;17.59;100.00;101157.22;5003507;28;19926;-80
2023/07/16 07:40:04;;;;;;;;;;;;;;;17.53;100.00;101139.66;4959741;28;19926;-73
2023/07/16 07:42:30;;;;;;;;;;;;;;;17.55;100.00;101134.09;4979955;28;20520;-76
2023/07/16 07:44:55;;;;;;;;;;;;;;;17.72;100.00;101145.94;4996815;28;19968;-74
2023/07/16 07:47:20;;;;;;;;;;;;;;;17.71;100.00;101144.22;4994666;28;20060;-76
2023/07/16 07:49:45;;;;;;;;;;;;;;;17.88;100.00;101150.59;5002840;28;19936;-71
2023/07/16 07:52:11;;;;;;;;;;;;;;;18.10;100.00;101159.25;4978959;28;19946;-77
2023/07/16 07:54:36;;;;;;;;;;;;;;;18.17;100.00;101154.88;4997754;28;19997;-74
2023/07/16 07:57:03;;;;;;;;;;;;;;;18.24;100.00;101146.94;4963450;28;19968;-74
2023/07/16 07:59:28;;;;;;;;;;;;;;;18.16;100.00;101147.72;4978740;28;20267;-75
2023/07/16 08:01:54;;;;;;;;;;;;;;;18.19;100.00;101146.56;4960967;28;20391;-80
2023/07/16 08:04:19;;;;;;;;;;;;;;;18.50;100.00;101152.31;4972882;28;19983;-75
2023/07/16 08:06:44;;;;;;;;;;;;;;;18.77;100.00;101146.78;4960988;28;20024;-78
2023/07/16 08:09:09;;;;;;;;;;;;;;;18.49;100.00;101156.03;4975929;28;20011;-76
2023/07/16 08:11:34;;;;;;;;;;;;;;;18.31;100.00;101149.84;4974537;28;20143;-73
2023/07/16 08:14:00;;;;;;;;;;;;;;;18.52;100.00;101154.88;4978001;28;19925;-75
2023/07/16 08:16:25;;;;;;;;;;;;;;;18.58;100.00;101146.03;4962110;28;19927;-75
2023/07/16 08:18:50;;;;;;;;;;;;;;;18.53;100.00;101149.25;4975602;28;19937;-83
2023/07/16 08:21:19;;;;;;;;;;;;;;;18.72;100.00;101179.91;4974810;28;19929;-84
2023/07/16 08:23:45;;;;;;;;;;;;;;;18.10;100.00;101162.81;4961988;28;19925;-78
2023/07/16 08:26:12;;;;;;;;;;;;;;;18.37;100.00;101160.06;4962990;28;20153;-74
2023/07/16 08:28:37;;;;;;;;;;;;;;;18.36;100.00;101153.78;4986169;28;19925;-78
2023/07/16 08:31:03;;;;;;;;;;;;;;;18.46;100.00;101156.34;4977447;28;19983;-76
2023/07/16 08:33:28;;;;;;;;;;;;;;;18.64;100.00;101161.69;4987971;28;20023;-77
2023/07/16 08:35:53;;;;;;;;;;;;;;;18.79;100.00;101169.25;4976619;28;19925;-75
2023/07/16 08:38:18;;;;;;;;;;;;;;;19.06;100.00;101157.25;5002675;28;20016;-77
2023/07/16 08:40:43;;;;;;;;;;;;;;;19.26;100.00;101162.34;5002362;28;19985;-78
2023/07/16 08:43:10;;;;;;;;;;;;;;;19.28;100.00;101161.19;4980878;28;20313;-78
2023/07/16 08:45:39;;;;;;;;;;;;;;;19.14;100.00;101151.81;4962634;28;20041;-75
2023/07/16 08:48:04;;;;;;;;;;;;;;;19.39;100.00;101170.00;4977095;28;19932;-76
2023/07/16 08:50:30;;;;;;;;;;;;;;;19.40;100.00;101163.53;4980661;28;19973;-74
2023/07/16 08:52:55;;;;;;;;;;;;;;;19.65;100.00;101161.69;4992340;28;22355;-79
2023/07/16 08:55:20;;;;;;;;;;;;;;;19.68;100.00;101168.66;4978480;28;20363;-76
2023/07/16 08:57:45;;;;;;;;;;;;;;;19.57;100.00;101162.53;5002452;28;20047;-74
2023/07/16 09:00:11;;;;;;;;;;;;;;;19.58;100.00;101164.25;4960812;28;19925;-76
2023/07/16 09:02:36;;;;;;;;;;;;;;;19.67;100.00;101169.66;4991807;28;20001;-75
2023/07/16 09:05:01;;;;;;;;;;;;;;;19.71;100.00;101171.03;5001804;28;19976;-74
2023/07/16 09:07:26;;;;;;;;;;;;;;;19.74;100.00;101165.25;4969670;28;19945;-76
2023/07/16 09:09:58;;;;;;;;;;;;;;;20.14;100.00;101166.19;4983405;28;19993;-75
2023/07/16 09:12:23;;;;;;;;;;;;;;;20.05;100.00;101176.28;5004887;28;19925;-78
2023/07/16 09:14:48;;;;;;;;;;;;;;;20.19;100.00;101171.97;5000896;28;19925;-74
2023/07/16 09:17:14;;;;;;;;;;;;;;;20.19;100.00;101190.22;4995954;28;20448;-75
2023/07/16 09:19:39;;;;;;;;;;;;;;;20.26;100.00;101206.72;4963814;28;19922;-77
2023/07/16 09:22:04;;;;;;;;;;;;;;;19.84;100.00;101170.50;5001365;28;19956;-75
2023/07/16 09:24:29;;;;;;;;;;;;;;;19.68;100.00;101179.53;4977406;28;19952;-79
2023/07/16 09:26:58;;;;;;;;;;;;;;;19.75;100.00;101183.28;5003975;28;19979;-73
2023/07/16 09:29:24;;;;;;;;;;;;;;;20.13;100.00;101190.91;4979983;28;19925;-72
2023/07/16 09:31:53;;;;;;;;;;;;;;;20.28;100.00;101182.88;4973691;28;19929;-77
2023/07/16 09:34:18;;;;;;;;;;;;;;;19.74;100.00;101200.66;5000706;28;20043;-79
2023/07/16 09:36:46;;;;;;;;;;;;;;;19.48;100.00;101201.69;4993281;28;19964;-74
2023/07/16 09:39:11;;;;;;;;;;;;;;;19.43;100.00;101206.78;4988591;28;19934;-74
2023/07/16 09:41:38;;;;;;;;;;;;;;;19.30;100.00;101205.41;4958982;28;20536;-75
2023/07/16 09:44:03;;;;;;;;;;;;;;;19.57;100.00;101191.63;4958756;28;20340;-74
2023/07/16 09:46:28;;;;;;;;;;;;;;;19.78;100.00;101199.28;4974472;28;20060;-73
2023/07/16 09:48:53;;;;;;;;;;;;;;;20.01;100.00;101210.34;4974368;28;20362;-74
2023/07/16 09:51:19;;;;;;;;;;;;;;;19.86;100.00;101192.97;4975631;28;19926;-76
2023/07/16 09:53:44;;;;;;;;;;;;;;;20.04;100.00;101209.16;5003190;28;19925;-76
2023/07/16 09:56:10;;;;;;;;;;;;;;;20.25;100.00;101208.63;4977873;28;19984;-76
2023/07/16 09:58:35;;;;;;;;;;;;;;;20.28;100.00;101219.16;5006305;28;20039;-75
2023/07/16 10:01:00;;;;;;;;;;;;;;;20.28;100.00;101221.03;4973358;28;19937;-76
2023/07/16 10:03:25;;;;;;;;;;;;;;;20.41;100.00;101218.59;5001635;28;19973;-76
2023/07/16 10:05:51;;;;;;;;;;;;;;;20.50;100.00;101219.44;4975116;28;20028;-73
2023/07/16 10:08:17;;;;;;;;;;;;;;;20.41;98.59;101225.94;4986743;28;19961;-72
2023/07/16 10:10:53;;;;;;;;;;;;;;;20.28;98.94;101221.03;4975962;28;21048;-75
2023/07/16 10:13:18;;;;;;;;;;;;;;;20.14;97.23;101220.72;5005877;28;20614;-79
2023/07/16 10:15:53;;;;;;;;;;;;;;;20.28;100.00;101227.31;4960217;28;20017;-78
2023/07/16 10:18:24;;;;;;;;;;;;;;;20.31;100.00;101239.78;4973381;28;20167;-75
2023/07/16 10:20:50;;;;;;;;;;;;;;;20.39;93.55;101239.75;4982579;28;20366;-77
2023/07/16 10:23:15;;;;;;;;;;;;;;;19.94;96.64;101236.59;4974962;28;20410;-74
2023/07/16 10:25:41;;;;;;;;;;;;;;;20.05;94.65;101259.94;4975163;28;19925;-79
2023/07/16 10:28:06;;;;;;;;;;;;;;;20.16;94.67;101256.00;4980796;28;20542;-80
2023/07/16 10:30:32;;;;;;;;;;;;;;;20.33;100.00;101243.19;4979326;28;19917;-75
2023/07/16 10:32:57;;;;;;;;;;;;;;;20.08;94.59;101254.13;4959386;28;19932;-74
2023/07/16 10:35:23;;;;;;;;;;;;;;;20.53;94.24;101255.38;4978566;28;19925;-80
2023/07/16 10:37:48;;;;;;;;;;;;;;;20.78;95.62;101255.31;5009907;28;19925;-79
2023/07/16 10:40:14;;;;;;;;;;;;;;;20.67;96.67;101252.94;5006502;28;19932;-76
2023/07/16 10:42:43;;;;;;;;;;;;;;;20.42;96.09;101257.63;4995128;28;19960;-73
2023/07/16 10:45:09;;;;;;;;;;;;;;;20.10;94.25;101248.50;4966394;28;19964;-75
2023/07/16 10:47:35;;;;;;;;;;;;;;;19.99;94.25;101256.03;4980675;28;19999;-75
2023/07/16 10:50:00;;;;;;;;;;;;;;;20.23;95.34;101267.91;5004860;28;19984;-78
2023/07/16 10:52:25;;;;;;;;;;;;;;;20.66;97.21;101252.09;5005425;28;20395;-77
2023/07/16 10:54:54;;;;;;;;;;;;;;;21.19;92.43;101243.34;4984091;28;19933;-75
2023/07/16 10:57:19;;;;;;;;;;;;;;;21.11;88.72;101248.84;4960245;28;19951;-75
2023/07/16 10:59:45;;;;;;;;;;;;;;;20.72;91.25;101260.63;4986481;28;19931;-71
2023/07/16 11:02:11;;;;;;;;;;;;;;;20.64;89.53;101256.88;4997933;28;19925;-80
2023/07/16 11:04:36;;;;;;;;;;;;;;;20.72;95.20;101253.25;4980555;28;19930;-75
2023/07/16 11:07:08;;;;;;;;;;;;;;;20.77;89.88;101263.69;4978940;28;19921;-76
2023/07/16 11:09:33;;;;;;;;;;;;;;;21.10;89.23;101249.88;5001581;28;19936;-77
2023/07/16 11:12:08;;;;;;;;;;;;;;;21.15;87.32;101255.66;5007466;28;19922;-79
2023/07/16 11:14:33;;;;;;;;;;;;;;;20.98;88.59;101250.28;4982143;28;19925;-77
2023/07/16 11:17:07;;;;;;;;;;;;;;;20.76;90.95;101254.66;4997534;28;20559;-76
2023/07/16 11:19:32;;;;;;;;;;;;;;;20.35;88.75;101261.06;4979316;28;20028;-75
2023/07/16 11:21:57;;;;;;;;;;;;;;;19.96;88.99;101256.38;5009938;28;20305;-80
2023/07/16 11:24:22;;;;;;;;;;;;;;;20.00;92.45;101268.59;5005115;28;20318;-73
2023/07/16 11:26:51;;;;;;;;;;;;;;;20.01;90.61;101273.03;5005162;28;20335;-77
2023/07/16 11:29:16;;;;;;;;;;;;;;;19.84;92.14;101271.31;4979951;28;19926;-73
2023/07/16 11:31:42;;;;;;;;;;;;;;;19.64;94.11;101285.25;4975220;28;19980;-77
2023/07/16 11:34:07;;;;;;;;;;;;;;;19.66;93.88;101272.34;4978370;28;20075;-79
2023/07/16 11:36:33;;;;;;;;;;;;;;;19.63;96.06;101278.13;4980953;28;19929;-78
2023/07/16 11:38:58;;;;;;;;;;;;;;;19.95;95.06;101289.22;4959534;28;20182;-82
2023/07/16 11:41:23;;;;;;;;;;;;;;;20.28;92.41;101284.56;4993855;28;19931;-76
2023/07/16 11:43:48;;;;;;;;;;;;;;;20.54;91.45;101288.94;4979665;28;19925;-77
2023/07/16 11:46:17;;;;;;;;;;;;;;;20.79;94.90;101289.78;4979531;28;19947;-77
2023/07/16 11:48:42;;;;;;;;;;;;;;;21.01;89.35;101308.28;4960796;28;20383;-80
2023/07/16 11:51:08;;;;;;;;;;;;;;;21.13;87.14;101295.94;4976082;28;19948;-76
2023/07/16 11:53:33;;;;;;;;;;;;;;;21.53;85.07;101293.13;4993711;28;20359;-79
2023/07/16 11:55:58;;;;;;;;;;;;;;;21.68;84.32;101299.56;4996413;28;19976;-75
2023/07/16 11:58:23;;;;;;;;;;;;;;;21.75;87.60;101313.34;4977913;28;19929;-74
2023/07/16 12:00:50;;;;;;;;;;;;;;;21.76;81.85;101304.13;4980270;28;20400;-75
2023/07/16 12:03:16;;;;;;;;;;;;;;;21.00;83.65;101301.97;4982748;28;20405;-79
2023/07/16 12:05:41;;;;;;;;;;;;;;;20.95;87.26;101310.69;4978649;28;20170;-74
2023/07/16 12:08:09;;;;;;;;;;;;;;;20.88;86.56;101317.03;4984002;28;19922;-80
2023/07/16 12:10:34;;;;;;;;;;;;;;;20.75;91.25;101309.38;4981340;28;20012;-77
2023/07/16 12:12:59;;;;;;;;;;;;;;;20.64;90.85;101319.63;4976410;28;21295;-77
2023/07/16 12:15:25;;;;;;;;;;;;;;;21.51;87.32;101312.44;4967895;28;20367;-75
2023/07/16 12:17:50;;;;;;;;;;;;;;;20.87;87.65;101307.97;4979973;28;20447;-75
2023/07/16 12:20:15;;;;;;;;;;;;;;;20.61;87.73;101308.22;4978828;28;19925;-74